Time;durP1;ratioP1;P1;durP2;ratioP2;P2;SDS_P1;SDS_P2;PMS_P1;PMS_P2;Temp;Humidity;BMP_temperature;BMP_pressure;BME280_temperature;BME280_humidity;BME280_pressure;Samples;Min_cycle;Max_cycle;Signal;HPM_P1;HPM_P2
2022/02/25 00:01:57;;;;;;;17.00;6.60;;;;;-1.10;97899.60;;;;110560;1253;41539;-64
2022/02/25 00:04:27;;;;;;;13.70;6.20;;;;;-1.20;97902.40;;;;110549;1254;41163;-61
2022/02/25 00:06:57;;;;;;;12.10;5.60;;;;;-1.30;97902.40;;;;110740;1251;41155;-62
2022/02/25 00:09:27;;;;;;;14.90;6.10;;;;;-1.30;97899.60;;;;110543;1254;41198;-63
2022/02/25 00:11:56;;;;;;;14.70;6.20;;;;;-1.34;97896.60;;;;110443;1251;41250;-62
2022/02/25 00:14:26;;;;;;;13.40;5.60;;;;;-1.40;97894.40;;;;110445;1254;41326;-63
2022/02/25 00:16:56;;;;;;;12.90;5.90;;;;;-1.40;97890.80;;;;110668;1251;41166;-64
2022/02/25 00:19:29;;;;;;;12.90;5.50;;;;;-1.40;97891.40;;;;110532;1253;41265;-65
2022/02/25 00:22:00;;;;;;;16.80;6.30;;;;;-1.40;97895.20;;;;110563;1251;41147;-64
2022/02/25 00:24:30;;;;;;;15.20;5.70;;;;;-1.40;97886.00;;;;110714;1251;41811;-65
2022/02/25 00:27:00;;;;;;;12.60;5.80;;;;;-1.40;97882.00;;;;110565;1251;41133;-65
2022/02/25 00:29:30;;;;;;;12.20;5.20;;;;;-1.40;97877.20;;;;110418;1254;41975;-62
2022/02/25 00:32:00;;;;;;;12.90;5.70;;;;;-1.34;97874.40;;;;110724;1251;41601;-64
2022/02/25 00:34:30;;;;;;;12.50;5.50;;;;;-1.30;97875.00;;;;110734;1251;41449;-64
2022/02/25 00:37:00;;;;;;;14.40;6.30;;;;;-1.30;97869.40;;;;110677;1251;41267;-63
2022/02/25 00:39:31;;;;;;;14.20;6.20;;;;;-1.30;97869.20;;;;110541;1254;41556;-63
2022/02/25 00:42:05;;;;;;;16.20;5.90;;;;;-1.30;97868.80;;;;110453;1252;41135;-63
2022/02/25 00:44:34;;;;;;;15.60;6.10;;;;;-1.30;97866.20;;;;110589;1251;41273;-63
2022/02/25 00:47:05;;;;;;;13.60;6.20;;;;;-1.30;97863.60;;;;110388;1254;41173;-63
2022/02/25 00:49:34;;;;;;;17.80;6.70;;;;;-1.30;97861.20;;;;110556;1253;41873;-64
2022/02/25 00:52:05;;;;;;;12.10;5.80;;;;;-1.30;97856.60;;;;110472;1254;41160;-63
2022/02/25 00:54:35;;;;;;;13.50;5.50;;;;;-1.30;97857.60;;;;110446;1254;41268;-62
2022/02/25 00:57:07;;;;;;;11.50;5.20;;;;;-1.30;97860.60;;;;110369;1254;41183;-63
2022/02/25 00:59:37;;;;;;;14.00;5.90;;;;;-1.32;97855.00;;;;110544;1251;41163;-63
2022/02/25 01:02:08;;;;;;;13.50;6.00;;;;;-1.36;97852.40;;;;110588;1253;41722;-61
2022/02/25 01:04:38;;;;;;;16.30;5.90;;;;;-1.34;97853.40;;;;110799;1251;41258;-63
2022/02/25 01:07:08;;;;;;;12.60;5.50;;;;;-1.36;97853.20;;;;110559;1251;41374;-64
2022/02/25 01:09:38;;;;;;;13.50;6.00;;;;;-1.34;97842.20;;;;110582;1254;42216;-65
2022/02/25 01:12:08;;;;;;;14.60;6.00;;;;;-1.40;97836.00;;;;110545;1251;41188;-64
2022/02/25 01:14:38;;;;;;;;;;;;;-1.40;97836.00;;;;110616;1253;41272;-63
2022/02/25 01:17:09;;;;;;;14.10;5.30;;;;;-1.40;97826.00;;;;110665;1251;42032;-63
2022/02/25 01:19:39;;;;;;;12.00;5.20;;;;;-1.40;97823.60;;;;110485;1251;41173;-63
2022/02/25 01:22:09;;;;;;;12.20;5.40;;;;;-1.50;97821.80;;;;110535;1251;41265;-63
2022/02/25 01:24:41;;;;;;;15.40;5.50;;;;;-1.50;97821.60;;;;110478;1252;41420;-63
2022/02/25 01:27:11;;;;;;;11.60;5.00;;;;;-1.50;97826.80;;;;110542;1253;41554;-63
2022/02/25 01:29:41;;;;;;;10.70;4.40;;;;;-1.58;97827.20;;;;110606;1251;41339;-63
2022/02/25 01:32:11;;;;;;;14.70;5.00;;;;;-1.60;97825.00;;;;110544;1251;41287;-63
2022/02/25 01:34:42;;;;;;;12.10;5.40;;;;;-1.62;97819.00;;;;110580;1253;41152;-62
2022/02/25 01:37:12;;;;;;;13.20;6.60;;;;;-1.70;97811.80;;;;110527;1254;41265;-64
2022/02/25 01:39:43;;;;;;;14.40;6.30;;;;;-1.70;97817.20;;;;110381;1253;41202;-65
2022/02/25 01:42:13;;;;;;;18.40;7.10;;;;;-1.80;97815.20;;;;110711;1253;41273;-62
2022/02/25 01:44:46;;;;;;;13.30;5.70;;;;;-1.80;97804.80;;;;110654;1252;41167;-64
2022/02/25 01:47:16;;;;;;;17.30;6.50;;;;;-1.80;97804.60;;;;110623;1253;42379;-64
2022/02/25 01:49:46;;;;;;;19.40;7.60;;;;;-1.80;97799.80;;;;110684;1251;42216;-62
2022/02/25 01:52:18;;;;;;;18.00;7.10;;;;;-1.88;97794.20;;;;110572;1253;41376;-64
2022/02/25 01:54:49;;;;;;;17.80;7.50;;;;;-1.90;97793.60;;;;110765;1251;41854;-62
2022/02/25 01:57:19;;;;;;;18.70;7.10;;;;;-1.90;97794.60;;;;110624;1253;42385;-62
2022/02/25 01:59:50;;;;;;;18.40;6.90;;;;;-2.00;97794.20;;;;110610;1253;42509;-65
2022/02/25 02:02:22;;;;;;;15.40;6.40;;;;;-2.00;97803.80;;;;110469;1253;41938;-62
2022/02/25 02:04:52;;;;;;;14.10;6.30;;;;;-2.00;97799.80;;;;110536;1253;42848;-63
2022/02/25 02:07:25;;;;;;;16.30;6.50;;;;;-2.00;97795.60;;;;110572;1253;41959;-62
2022/02/25 02:09:54;;;;;;;15.90;6.60;;;;;-2.00;97786.60;;;;110465;1251;41832;-63
2022/02/25 02:12:25;;;;;;;15.60;6.30;;;;;-1.94;97787.40;;;;110750;1251;41039;-64
2022/02/25 02:14:55;;;;;;;15.70;5.90;;;;;-1.90;97786.40;;;;110549;1253;41223;-62
2022/02/25 02:17:25;;;;;;;13.30;6.10;;;;;-2.00;97778.40;;;;110540;1251;41159;-65
2022/02/25 02:19:55;;;;;;;13.30;6.00;;;;;-2.00;97778.60;;;;110606;1251;42441;-65
2022/02/25 02:22:27;;;;;;;12.80;5.40;;;;;-2.04;97777.60;;;;110618;1253;41617;-64
2022/02/25 02:24:58;;;;;;;13.80;5.80;;;;;-2.10;97777.20;;;;110547;1251;41196;-65
2022/02/25 02:28:17;;;;;;;14.40;6.30;;;;;-2.12;97776.00;;;;110526;1251;42597;-60
2022/02/25 02:30:20;;;;;;;11.80;5.10;;;;;-2.20;97780.40;;;;110631;1253;41282;-65
2022/02/25 02:32:50;;;;;;;12.30;5.20;;;;;-2.20;97778.40;;;;110549;1251;41190;-63
2022/02/25 02:35:19;;;;;;;12.40;5.10;;;;;-2.30;97775.00;;;;110556;1253;42191;-64
2022/02/25 02:37:51;;;;;;;15.20;7.50;;;;;-2.30;97783.00;;;;110622;1251;41343;-64
2022/02/25 02:40:21;;;;;;;19.70;9.50;;;;;-2.50;97795.20;;;;110728;1251;42109;-63
2022/02/25 02:42:52;;;;;;;15.10;7.00;;;;;-2.60;97794.80;;;;110635;1251;41144;-62
2022/02/25 02:45:22;;;;;;;15.20;6.80;;;;;-2.70;97789.00;;;;110212;1252;368343;-63
2022/02/25 02:47:51;;;;;;;16.70;6.60;;;;;-2.80;97793.60;;;;110639;1250;41621;-63
2022/02/25 02:50:24;;;;;;;15.50;7.20;;;;;-2.80;97802.80;;;;110772;1250;41931;-62
2022/02/25 02:52:54;;;;;;;14.10;6.80;;;;;-2.90;97804.40;;;;110501;1253;41250;-63
2022/02/25 02:55:25;;;;;;;14.40;6.70;;;;;-2.90;97811.60;;;;110532;1250;41171;-62
2022/02/25 02:57:55;;;;;;;16.40;6.60;;;;;-3.00;97813.00;;;;110639;1253;41268;-64
2022/02/25 03:00:25;;;;;;;13.50;6.00;;;;;-3.00;97810.60;;;;110539;1254;41264;-64
2022/02/25 03:02:55;;;;;;;14.20;5.90;;;;;-3.00;97806.60;;;;110489;1253;42781;-62
2022/02/25 03:05:25;;;;;;;14.30;6.50;;;;;-3.00;97811.00;;;;110522;1253;43579;-64
2022/02/25 03:07:55;;;;;;;14.30;6.70;;;;;-3.10;97813.60;;;;110599;1250;41734;-62
2022/02/25 03:10:27;;;;;;;13.70;6.20;;;;;-3.10;97811.80;;;;110532;1253;41735;-65
2022/02/25 03:12:59;;;;;;;12.70;6.40;;;;;-3.10;97812.00;;;;110549;1252;41139;-68
2022/02/25 03:15:30;;;;;;;15.10;5.80;;;;;-3.14;97809.40;;;;110601;1253;41735;-63
2022/02/25 03:18:00;;;;;;;15.40;6.40;;;;;-3.12;97813.60;;;;110778;1250;41162;-64
2022/02/25 03:20:30;;;;;;;14.80;6.30;;;;;-3.12;97818.40;;;;110606;1251;41144;-63
2022/02/25 03:23:01;;;;;;;14.30;5.90;;;;;-3.12;97817.00;;;;110555;1253;41163;-63
2022/02/25 03:25:31;;;;;;;19.90;6.70;;;;;-3.12;97815.80;;;;110539;1252;41614;-63
2022/02/25 03:28:01;;;;;;;15.80;6.20;;;;;-3.10;97815.40;;;;110608;1251;41155;-60
2022/02/25 03:30:32;;;;;;;14.80;6.60;;;;;-3.10;97814.60;;;;110621;1251;41267;-62
2022/02/25 03:33:02;;;;;;;13.90;6.30;;;;;-3.10;97813.40;;;;110825;1250;41943;-63
2022/02/25 03:35:35;;;;;;;18.00;7.50;;;;;-3.10;97814.40;;;;110789;1251;41617;-63
2022/02/25 03:38:05;;;;;;;14.80;6.30;;;;;-3.08;97809.00;;;;110626;1250;41275;-66
2022/02/25 03:40:36;;;;;;;13.40;6.30;;;;;-3.00;97802.00;;;;110484;1253;41292;-63
2022/02/25 03:43:06;;;;;;;13.80;6.00;;;;;-3.00;97800.80;;;;110725;1250;41321;-65
2022/02/25 03:45:38;;;;;;;16.00;6.20;;;;;-3.00;97795.80;;;;110491;1251;41264;-64
2022/02/25 03:48:13;;;;;;;18.30;7.90;;;;;-3.00;97791.80;;;;110577;1251;41710;-65
2022/02/25 03:50:43;;;;;;;14.10;6.50;;;;;-3.00;97793.00;;;;110491;1252;41255;-65
2022/02/25 03:53:14;;;;;;;15.40;6.90;;;;;-2.90;97789.40;;;;110560;1250;42007;-65
2022/02/25 03:55:44;;;;;;;16.70;7.00;;;;;-2.90;97790.60;;;;110586;1251;41835;-60
2022/02/25 03:58:14;;;;;;;13.40;6.70;;;;;-2.90;97783.00;;;;110564;1253;42390;-62
2022/02/25 04:00:46;;;;;;;14.60;6.50;;;;;-2.90;97784.40;;;;110485;1253;41608;-60
2022/02/25 04:03:16;;;;;;;16.70;6.70;;;;;-2.84;97783.60;;;;110433;1252;41279;-63
2022/02/25 04:05:46;;;;;;;15.20;6.40;;;;;-2.90;97776.60;;;;110629;1253;41262;-63
2022/02/25 04:08:17;;;;;;;19.00;6.90;;;;;-2.90;97776.80;;;;110596;1253;41283;-61
2022/02/25 04:10:48;;;;;;;17.20;7.80;;;;;-2.90;97774.00;;;;110661;1251;41911;-63
2022/02/25 04:13:18;;;;;;;17.70;7.50;;;;;-2.90;97775.40;;;;110642;1253;41546;-63
2022/02/25 04:15:48;;;;;;;14.90;6.90;;;;;-2.90;97776.20;;;;110771;1250;41152;-63
2022/02/25 04:18:18;;;;;;;15.20;7.50;;;;;-2.90;97780.40;;;;110533;1251;41175;-66
2022/02/25 04:20:48;;;;;;;18.90;7.80;;;;;-2.90;97777.60;;;;110555;1251;41289;-66
2022/02/25 04:23:18;;;;;;;20.10;7.50;;;;;-2.90;97775.20;;;;110573;1253;41358;-65
2022/02/25 04:25:47;;;;;;;18.80;7.90;;;;;-3.00;97777.60;;;;110609;1253;41134;-65
2022/02/25 04:28:17;;;;;;;22.70;8.60;;;;;-3.00;97775.80;;;;110735;1250;41260;-67
2022/02/25 04:30:48;;;;;;;20.30;8.20;;;;;-3.08;97773.20;;;;110492;1253;41512;-63
2022/02/25 04:33:17;;;;;;;16.90;7.10;;;;;-3.10;97770.80;;;;110546;1253;41134;-65
2022/02/25 04:35:50;;;;;;;22.10;7.00;;;;;-3.10;97766.80;;;;110627;1251;41152;-62
2022/02/25 04:38:22;;;;;;;14.10;6.80;;;;;-3.10;97762.80;;;;110574;1251;41162;-62
2022/02/25 04:40:52;;;;;;;18.30;7.40;;;;;-3.14;97753.40;;;;110516;1253;41611;-63
2022/02/25 04:43:22;;;;;;;16.10;7.30;;;;;-3.20;97756.20;;;;110642;1251;41164;-62
2022/02/25 04:45:52;;;;;;;19.00;6.80;;;;;-3.20;97761.40;;;;110678;1250;41156;-62
2022/02/25 04:48:23;;;;;;;14.50;6.50;;;;;-3.20;97766.40;;;;110580;1253;41153;-63
2022/02/25 04:50:53;;;;;;;15.20;6.90;;;;;-3.20;97774.20;;;;110587;1252;41634;-62
2022/02/25 04:53:23;;;;;;;16.90;7.40;;;;;-3.26;97771.20;;;;110594;1253;41565;-64
2022/02/25 04:55:52;;;;;;;16.20;7.10;;;;;-3.30;97772.60;;;;110564;1253;41904;-63
2022/02/25 04:58:22;;;;;;;16.10;6.30;;;;;-3.30;97776.60;;;;110606;1253;41314;-65
2022/02/25 05:00:52;;;;;;;17.30;7.60;;;;;-3.30;97788.40;;;;110625;1253;41160;-63
2022/02/25 05:03:21;;;;;;;17.70;7.20;;;;;-3.40;97785.80;;;;110514;1253;41636;-66
2022/02/25 05:05:51;;;;;;;16.90;6.60;;;;;-3.40;97789.40;;;;110499;1251;41179;-63
2022/02/25 05:08:21;;;;;;;16.50;7.20;;;;;-3.40;97790.40;;;;110770;1250;41533;-65
2022/02/25 05:10:52;;;;;;;17.70;7.40;;;;;-3.48;97798.20;;;;110513;1253;42176;-65
2022/02/25 05:13:22;;;;;;;20.80;7.60;;;;;-3.50;97794.40;;;;110603;1251;41211;-62
2022/02/25 05:21:31;;;;;;;16.30;6.60;;;;;-3.50;97791.40;;;;110503;1253;41299;-64
2022/02/25 05:24:00;;;;;;;14.60;6.90;;;;;-3.50;97796.20;;;;110540;1253;41246;-63
2022/02/25 05:26:30;;;;;;;13.00;6.60;;;;;-3.40;97798.80;;;;110507;1253;41283;-63
2022/02/25 05:29:00;;;;;;;12.60;5.50;;;;;-3.40;97797.20;;;;110525;1253;41238;-62
2022/02/25 05:31:30;;;;;;;18.10;7.10;;;;;-3.40;97800.60;;;;110666;1251;41306;-62
2022/02/25 05:34:00;;;;;;;16.20;7.40;;;;;-3.30;97803.00;;;;110467;1253;41150;-62
2022/02/25 05:36:30;;;;;;;15.30;7.60;;;;;-3.30;97800.60;;;;110530;1252;41205;-62
2022/02/25 05:38:59;;;;;;;16.40;7.30;;;;;-3.20;97788.60;;;;110689;1251;41155;-62
2022/02/25 05:41:29;;;;;;;17.30;7.60;;;;;-3.20;97788.00;;;;110737;1250;42503;-65
2022/02/25 05:43:59;;;;;;;16.60;7.30;;;;;-3.10;97785.40;;;;110636;1250;41186;-65
2022/02/25 05:46:29;;;;;;;23.20;8.10;;;;;-3.00;97789.60;;;;110737;1250;41153;-65
2022/02/25 05:48:58;;;;;;;18.60;7.20;;;;;-2.88;97787.20;;;;110508;1253;41278;-63
2022/02/25 05:51:28;;;;;;;16.40;6.70;;;;;-2.70;97783.00;;;;110504;1251;41161;-65
2022/02/25 05:53:57;;;;;;;16.90;6.90;;;;;-2.56;97779.00;;;;110423;1251;41163;-63
2022/02/25 05:56:27;;;;;;;16.40;7.00;;;;;-2.40;97773.80;;;;110357;1254;41501;-63
2022/02/25 05:58:56;;;;;;;15.20;6.50;;;;;-2.22;97776.80;;;;110394;1251;41267;-60
2022/02/25 06:01:26;;;;;;;15.40;6.70;;;;;-2.10;97784.40;;;;110678;1251;41899;-61
2022/02/25 06:03:57;;;;;;;14.20;6.20;;;;;-1.90;97777.80;;;;110529;1253;42055;-62
2022/02/25 06:06:27;;;;;;;17.00;5.70;;;;;-1.74;97779.40;;;;110615;1251;42231;-63
2022/02/25 06:08:58;;;;;;;13.20;6.00;;;;;-1.60;97776.60;;;;110668;1250;41171;-64
2022/02/25 06:11:28;;;;;;;13.20;5.50;;;;;-1.48;97773.40;;;;110790;1251;41619;-65
2022/02/25 06:14:00;;;;;;;10.80;5.00;;;;;-1.26;97770.40;;;;110598;1250;41845;-66
2022/02/25 06:16:29;;;;;;;11.40;5.40;;;;;-1.02;97758.00;;;;110696;1250;41609;-64
2022/02/25 06:19:01;;;;;;;12.60;5.30;;;;;-0.80;97761.20;;;;110830;1251;41146;-65
2022/02/25 06:21:31;;;;;;;13.00;5.60;;;;;-0.60;97772.00;;;;110651;1252;41146;-65
2022/02/25 06:24:02;;;;;;;14.20;6.30;;;;;-0.40;97768.80;;;;110769;1250;41149;-66
2022/02/25 06:26:32;;;;;;;17.60;7.40;;;;;-0.18;97766.20;;;;110576;1250;41170;-64
2022/02/25 06:29:01;;;;;;;32.20;16.50;;;;;0.08;97770.20;;;;110700;1250;41466;-66
2022/02/25 06:31:32;;;;;;;41.20;20.60;;;;;0.10;97780.60;;;;110545;1253;42405;-66
2022/02/25 06:34:03;;;;;;;40.00;19.10;;;;;0.10;97781.40;;;;110627;1250;41165;-66
2022/02/25 06:36:32;;;;;;;30.50;15.40;;;;;0.10;97783.20;;;;110601;1253;41255;-67
2022/02/25 06:39:02;;;;;;;30.70;14.60;;;;;0.20;97775.20;;;;110698;1250;42228;-66
2022/02/25 06:41:32;;;;;;;28.10;12.30;;;;;0.40;97773.00;;;;110528;1251;41775;-66
2022/02/25 06:44:06;;;;;;;25.00;12.10;;;;;0.54;97762.20;;;;110628;1251;41268;-67
2022/02/25 06:46:47;;;;;;;26.50;12.70;;;;;0.70;97762.80;;;;110804;1250;41249;-66
2022/02/25 06:49:18;;;;;;;23.60;12.30;;;;;0.80;97771.40;;;;110565;1251;41159;-67
2022/02/25 06:51:49;;;;;;;21.50;10.80;;;;;0.80;97773.80;;;;110792;1250;41620;-66
2022/02/25 06:54:19;;;;;;;19.50;10.00;;;;;0.86;97771.40;;;;110720;1250;41591;-65
2022/02/25 06:56:53;;;;;;;19.10;8.90;;;;;1.06;97767.60;;;;110581;1250;42192;-66
2022/02/25 06:59:23;;;;;;;17.50;8.10;;;;;1.32;97763.00;;;;110563;1252;41509;-65
2022/02/25 07:01:52;;;;;;;21.20;8.10;;;;;1.60;97759.40;;;;110743;1250;41241;-66
2022/02/25 07:04:22;;;;;;;18.20;7.70;;;;;1.86;97766.00;;;;110774;1250;41649;-67
2022/02/25 07:06:54;;;;;;;14.90;6.60;;;;;2.10;97753.40;;;;110574;1250;41391;-69
2022/02/25 07:09:24;;;;;;;14.90;6.90;;;;;2.30;97744.40;;;;110550;1250;41506;-67
2022/02/25 07:11:53;;;;;;;15.50;6.70;;;;;2.50;97744.80;;;;110595;1251;41669;-65
2022/02/25 07:14:22;;;;;;;16.40;7.50;;;;;2.80;97740.40;;;;110631;1251;41253;-65
2022/02/25 07:16:51;;;;;;;15.10;8.00;;;;;3.00;97727.20;;;;110635;1250;41966;-66
2022/02/25 07:19:20;;;;;;;26.20;10.60;;;;;3.30;97724.20;;;;110527;1251;41179;-65
2022/02/25 07:21:50;;;;;;;35.00;13.10;;;;;3.60;97719.80;;;;110825;1250;41859;-66
2022/02/25 07:24:19;;;;;;;33.60;14.20;;;;;3.84;97714.60;;;;110549;1253;41189;-64
2022/02/25 07:26:48;;;;;;;31.40;13.50;;;;;4.10;97723.80;;;;110549;1253;41965;-66
2022/02/25 07:29:19;;;;;;;31.20;12.60;;;;;4.30;97728.00;;;;110563;1253;42093;-67
2022/02/25 07:31:52;;;;;;;25.80;11.20;;;;;4.50;97735.20;;;;110731;1250;41422;-65
2022/02/25 07:34:36;;;;;;;22.70;10.10;;;;;4.74;97732.80;;;;110801;1250;41665;-67
2022/02/25 07:37:12;;;;;;;27.00;9.40;;;;;5.10;97730.60;;;;110633;1253;41614;-63
2022/02/25 07:39:53;;;;;;;16.30;7.50;;;;;5.48;97731.80;;;;110549;1253;41257;-64
2022/02/25 07:42:28;;;;;;;15.30;6.10;;;;;5.84;97741.60;;;;110634;1250;41079;-61
2022/02/25 07:44:58;;;;;;;12.50;4.40;;;;;6.10;97734.40;;;;110482;1254;41616;-70
2022/02/25 07:47:30;;;;;;;11.60;4.70;;;;;6.30;97730.80;;;;110642;1253;41450;-64
2022/02/25 07:50:01;;;;;;;12.50;4.80;;;;;6.50;97735.40;;;;110784;1250;41158;-60
2022/02/25 07:52:36;;;;;;;;;;;;;6.60;97727.40;;;;110551;1252;42447;-70
2022/02/25 07:55:16;;;;;;;19.60;7.20;;;;;6.80;97729.60;;;;110759;1250;41597;-66
2022/02/25 07:57:54;;;;;;;16.60;7.20;;;;;7.00;97726.20;;;;110607;1250;41259;-72
2022/02/25 08:00:35;;;;;;;15.60;5.80;;;;;7.10;97724.60;;;;110296;1253;42491;-70
2022/02/25 08:03:04;;;;;;;14.40;6.20;;;;;7.40;97719.00;;;;110605;1250;40736;-71
2022/02/25 08:05:41;;;;;;;14.30;5.90;;;;;7.70;97710.20;;;;110714;1250;41736;-67
2022/02/25 08:08:20;;;;;;;12.80;5.70;;;;;7.92;97711.00;;;;110590;1250;42545;-73
2022/02/25 08:11:01;;;;;;;14.30;5.60;;;;;8.24;97702.60;;;;110513;1253;41159;-73
2022/02/25 08:13:50;;;;;;;13.60;5.50;;;;;8.68;97698.60;;;;110656;1252;41542;-74
2022/02/25 08:16:26;;;;;;;14.10;5.60;;;;;9.10;97708.40;;;;110465;1250;41144;-68
2022/02/25 08:19:10;;;;;;;11.60;5.10;;;;;9.40;97705.00;;;;110598;1250;43024;-73
2022/02/25 08:21:50;;;;;;;11.00;4.30;;;;;9.68;97694.60;;;;110821;1250;41343;-73
2022/02/25 08:24:36;;;;;;;9.10;4.40;;;;;9.90;97682.60;;;;110661;1253;41922;-73
2022/02/25 08:27:18;;;;;;;12.00;4.90;;;;;10.18;97679.00;;;;110558;1253;41153;-71
2022/02/25 08:30:00;;;;;;;11.10;4.50;;;;;10.40;97669.20;;;;110540;1253;41161;-73
2022/02/25 08:33:09;;;;;;;12.10;5.00;;;;;10.70;97675.00;;;;110664;1250;41151;-75
2022/02/25 08:35:47;;;;;;;13.00;5.00;;;;;10.90;97670.60;;;;110628;1250;42168;-74
2022/02/25 08:38:28;;;;;;;16.20;4.70;;;;;11.20;97667.60;;;;110566;1253;41155;-70
2022/02/25 08:41:08;;;;;;;11.30;4.40;;;;;11.48;97672.20;;;;110689;1250;41714;-74
2022/02/25 08:43:48;;;;;;;10.70;4.30;;;;;11.40;97661.80;;;;110451;1254;41865;-72
2022/02/25 08:46:31;;;;;;;12.50;4.90;;;;;10.84;97666.60;;;;110587;1252;42048;-72
2022/02/25 08:49:07;;;;;;;10.50;4.40;;;;;10.28;97670.20;;;;110417;1253;41135;-73
2022/02/25 08:51:55;;;;;;;11.00;4.30;;;;;11.68;97647.80;;;;110606;1252;41252;-70
2022/02/25 08:54:52;;;;;;;13.50;5.10;;;;;14.66;97622.60;;;;110573;1251;42196;-73
2022/02/25 08:57:37;;;;;;;12.10;5.30;;;;;15.14;97625.40;;;;110554;1250;41156;-70
2022/02/25 09:00:20;;;;;;;10.80;4.20;;;;;16.74;97623.60;;;;110465;1250;41919;-70
2022/02/25 09:03:00;;;;;;;9.40;4.20;;;;;18.82;97618.60;;;;110573;1250;41294;-72
2022/02/25 09:05:44;;;;;;;11.20;4.20;;;;;20.98;97603.60;;;;110889;1253;40961;-72
2022/02/25 09:08:17;;;;;;;10.40;3.90;;;;;23.14;97599.00;;;;110669;1253;41193;-71
2022/02/25 09:10:49;;;;;;;11.10;4.20;;;;;25.16;97589.00;;;;110608;1250;41384;-72
2022/02/25 09:13:30;;;;;;;9.70;3.80;;;;;26.42;97582.60;;;;110565;1253;41939;-66
2022/02/25 09:16:10;;;;;;;9.40;3.30;;;;;27.68;97576.20;;;;110758;1251;42381;-72
2022/02/25 09:18:51;;;;;;;10.20;4.00;;;;;29.12;97563.60;;;;110757;1250;42064;-69
2022/02/25 09:21:21;;;;;;;9.00;3.80;;;;;30.02;97561.60;;;;110554;1253;40939;-70
2022/02/25 09:24:05;;;;;;;10.60;3.40;;;;;30.40;97571.40;;;;110550;1253;41156;-67
2022/02/25 09:26:45;;;;;;;12.10;3.80;;;;;30.64;97554.80;;;;110595;1253;41172;-65
2022/02/25 09:29:23;;;;;;;;;;;;;31.30;97552.40;;;;110695;1253;41266;-71
2022/02/25 09:32:03;;;;;;;11.50;3.80;;;;;32.52;97555.40;;;;110680;1253;41149;-66
2022/02/25 09:34:43;;;;;;;9.00;3.80;;;;;32.86;97548.40;;;;110643;1250;41342;-71
2022/02/25 09:37:23;;;;;;;10.50;4.10;;;;;33.34;97540.40;;;;110511;1251;41173;-66
2022/02/25 09:40:20;;;;;;;8.40;3.70;;;;;32.32;97545.80;;;;110686;1251;40742;-69
2022/02/25 09:42:58;;;;;;;9.70;4.40;;;;;33.28;97549.20;;;;110692;1251;41593;-71
2022/02/25 09:45:27;;;;;;;11.50;4.30;;;;;34.10;97545.80;;;;110628;1252;41133;-71
2022/02/25 09:47:57;;;;;;;11.10;3.90;;;;;30.88;97540.20;;;;110758;1250;41137;-66
2022/02/25 09:50:42;;;;;;;10.30;4.20;;;;;32.34;97536.20;;;;110606;1250;42368;-69
2022/02/25 09:53:25;;;;;;;9.50;3.70;;;;;33.50;97531.80;;;;110512;1252;41276;-69
2022/02/25 09:56:11;;;;;;;;;;;;;35.52;97528.00;;;;110684;1253;41135;-65
2022/02/25 09:58:54;;;;;;;9.30;3.80;;;;;30.04;97533.60;;;;110530;1250;41264;-67
2022/02/25 10:01:33;;;;;;;9.10;3.70;;;;;32.24;97537.00;;;;110487;1253;41272;-65
2022/02/25 10:04:22;;;;;;;8.90;3.50;;;;;33.30;97532.40;;;;110611;1252;41585;-75
2022/02/25 10:06:57;;;;;;;9.30;4.10;;;;;35.20;97532.80;;;;110870;1251;42039;-67
2022/02/25 10:09:39;;;;;;;7.60;3.50;;;;;36.82;97533.40;;;;111011;1250;41136;-65
2022/02/25 10:12:24;;;;;;;8.20;3.30;;;;;36.58;97537.40;;;;110714;1250;41254;-62
2022/02/25 10:15:11;;;;;;;10.40;3.80;;;;;35.36;97538.40;;;;110671;1251;41211;-65
2022/02/25 10:17:46;;;;;;;10.80;3.70;;;;;36.34;97531.60;;;;110607;1250;41652;-67
2022/02/25 10:20:27;;;;;;;10.80;3.60;;;;;37.96;97523.40;;;;110476;1251;41254;-67
2022/02/25 10:23:38;;;;;;;10.90;3.70;;;;;39.22;97517.00;;;;110666;1253;41138;-65
2022/02/25 10:26:14;;;;;;;9.60;3.80;;;;;35.26;97518.20;;;;110667;1250;41946;-65
2022/02/25 10:28:58;;;;;;;10.00;3.80;;;;;36.84;97520.00;;;;110555;1253;41273;-69
2022/02/25 10:31:48;;;;;;;12.80;3.80;;;;;34.16;97526.20;;;;110578;1250;41716;-66
2022/02/25 10:34:25;;;;;;;10.00;3.40;;;;;33.54;97530.00;;;;110783;1252;41146;-61
2022/02/25 10:37:03;;;;;;;9.30;3.50;;;;;30.24;97534.20;;;;110641;1253;42069;-62
2022/02/25 10:39:46;;;;;;;9.10;3.60;;;;;32.28;97529.60;;;;110792;1250;41282;-75
2022/02/25 10:42:23;;;;;;;10.70;3.80;;;;;34.32;97517.80;;;;110891;1252;41361;-74
2022/02/25 10:44:58;;;;;;;8.90;3.70;;;;;36.22;97507.00;;;;110988;1250;41185;-71
2022/02/25 10:47:36;;;;;;;8.50;3.90;;;;;37.52;97504.80;;;;110763;1253;41175;-71
2022/02/25 10:50:27;;;;;;;8.70;3.60;;;;;32.90;97508.40;;;;110657;1252;41161;-75
2022/02/25 10:53:28;;;;;;;8.20;3.60;;;;;33.60;97508.60;;;;110960;1250;41338;-75
2022/02/25 10:56:06;;;;;;;8.00;3.80;;;;;34.64;97508.00;;;;110818;1251;41168;-77
2022/02/25 10:58:51;;;;;;;11.00;4.10;;;;;36.50;97500.80;;;;110702;1250;41151;-66
2022/02/25 11:01:35;;;;;;;11.10;4.60;;;;;37.76;97499.60;;;;110804;1252;40860;-65
2022/02/25 11:04:14;;;;;;;10.80;4.90;;;;;38.44;97495.40;;;;110656;1252;42569;-67
2022/02/25 11:06:59;;;;;;;11.50;4.60;;;;;37.42;97490.00;;;;110703;1250;41174;-65
2022/02/25 11:09:36;;;;;;;11.60;4.30;;;;;38.54;97490.20;;;;110537;1252;41143;-67
2022/02/25 11:12:13;;;;;;;11.00;4.60;;;;;39.80;97490.60;;;;110615;1252;41792;-71
2022/02/25 11:14:52;;;;;;;11.20;4.50;;;;;40.50;97484.80;;;;110963;1253;41174;-65
2022/02/25 11:17:43;;;;;;;12.70;4.70;;;;;41.04;97482.80;;;;110544;1251;41252;-68
2022/02/25 11:20:27;;;;;;;11.60;5.00;;;;;40.10;97473.60;;;;110897;1253;42394;-71
2022/02/25 11:23:13;;;;;;;11.90;5.20;;;;;40.22;97472.80;;;;110824;1253;41735;-69
2022/02/25 11:25:56;;;;;;;11.90;5.10;;;;;37.50;97467.80;;;;110812;1250;41149;-66
2022/02/25 11:28:34;;;;;;;12.50;5.50;;;;;37.08;97464.00;;;;110670;1250;41152;-69
2022/02/25 11:31:27;;;;;;;13.80;5.80;;;;;34.92;97470.20;;;;110960;1250;40753;-67
2022/02/25 11:34:03;;;;;;;11.30;5.20;;;;;34.66;97462.00;;;;110488;1253;41163;-66
2022/02/25 11:36:46;;;;;;;10.80;5.00;;;;;35.44;97464.80;;;;110562;1253;41153;-72
2022/02/25 11:39:28;;;;;;;9.70;4.20;;;;;37.24;97458.80;;;;110871;1252;41392;-68
2022/02/25 11:42:03;;;;;;;10.00;4.50;;;;;39.16;97455.00;;;;110646;1252;42457;-67
2022/02/25 11:44:32;;;;;;;10.80;4.60;;;;;40.06;97452.00;;;;110663;1253;41284;-69
2022/02/25 11:47:03;;;;;;;9.80;4.30;;;;;40.70;97456.20;;;;110738;1250;41770;-71
2022/02/25 11:49:38;;;;;;;10.20;4.00;;;;;41.58;97452.80;;;;110986;1250;41301;-71
2022/02/25 11:52:29;;;;;;;9.60;3.40;;;;;41.98;97454.20;;;;110629;1253;41264;-72
2022/02/25 11:55:23;;;;;;;7.30;2.80;;;;;42.16;97455.80;;;;110679;1251;41149;-68
2022/02/25 11:57:56;;;;;;;7.50;2.70;;;;;42.90;97452.80;;;;110796;1253;41144;-70
2022/02/25 12:00:31;;;;;;;8.60;2.80;;;;;43.10;97456.40;;;;110963;1250;41149;-63
2022/02/25 12:03:12;;;;;;;9.10;2.80;;;;;43.52;97456.00;;;;110567;1253;41914;-63
2022/02/25 12:05:50;;;;;;;10.60;3.00;;;;;44.36;97448.40;;;;110859;1250;41475;-65
2022/02/25 12:08:29;;;;;;;7.70;2.90;;;;;44.80;97441.80;;;;110683;1252;41278;-70
2022/02/25 12:11:01;;;;;;;7.20;2.90;;;;;45.00;97438.60;;;;111027;1253;41173;-68
2022/02/25 12:13:33;;;;;;;8.30;2.70;;;;;45.22;97440.60;;;;111044;1252;41128;-67
2022/02/25 12:16:30;;;;;;;6.70;2.60;;;;;44.60;97435.20;;;;110702;1252;41155;-66
2022/02/25 12:19:15;;;;;;;7.30;2.60;;;;;44.76;97434.80;;;;110731;1250;41143;-69
2022/02/25 12:21:57;;;;;;;8.10;2.90;;;;;45.54;97441.40;;;;110661;1250;40945;-74
2022/02/25 12:24:33;;;;;;;7.90;3.00;;;;;45.90;97435.40;;;;110839;1253;41270;-68
2022/02/25 12:27:10;;;;;;;8.60;3.20;;;;;45.42;97439.20;;;;110502;1251;41396;-66
2022/02/25 12:29:44;;;;;;;8.10;3.00;;;;;45.42;97440.40;;;;110701;1250;41177;-65
2022/02/25 12:32:49;;;;;;;8.60;2.90;;;;;45.50;97436.20;;;;110691;1252;41720;-66
2022/02/25 12:35:49;;;;;;;7.80;2.90;;;;;45.60;97431.40;;;;110654;1251;42752;-65
2022/02/25 12:38:36;;;;;;;7.80;3.00;;;;;45.36;97428.60;;;;110803;1250;41420;-68
2022/02/25 12:41:15;;;;;;;10.70;2.90;;;;;45.00;97420.80;;;;110589;1250;41135;-68
2022/02/25 12:43:51;;;;;;;8.40;2.90;;;;;44.00;97423.20;;;;110691;1251;41602;-66
2022/02/25 12:46:22;;;;;;;9.90;3.00;;;;;44.22;97417.60;;;;110686;1250;41277;-68